createdAt,value
2019-04-26T00:02:34.555Z,66.90
2019-04-26T00:07:43.565Z,67.00
2019-04-26T00:12:59.871Z,66.60
2019-04-26T00:18:10.243Z,65.90
2019-04-26T00:23:18.282Z,66.80
2019-04-26T00:28:25.424Z,67.20
2019-04-26T00:33:32.984Z,67.60
2019-04-26T00:38:40.025Z,67.70
2019-04-26T00:43:50.139Z,67.70
2019-04-26T00:48:59.410Z,68.30
2019-04-26T00:54:08.634Z,68.90
2019-04-26T00:59:16.492Z,69.90
2019-04-26T01:04:25.078Z,70.50
2019-04-26T01:09:31.811Z,71.00
2019-04-26T01:14:39.176Z,72.10
2019-04-26T01:19:49.269Z,71.40
2019-04-26T01:24:59.648Z,72.80
2019-04-26T01:30:12.030Z,72.80
2019-04-26T01:35:24.218Z,74.00
2019-04-26T01:40:33.985Z,74.80
2019-04-26T01:45:49.614Z,78.10
2019-04-26T01:50:56.903Z,79.00
2019-04-26T01:56:04.363Z,78.60
2019-04-26T02:01:34.012Z,79.50
2019-04-26T02:06:42.840Z,79.80
2019-04-26T02:11:49.934Z,79.90
2019-04-26T02:16:57.021Z,78.10
2019-04-26T02:22:19.029Z,78.90
2019-04-26T02:27:28.364Z,80.40
2019-04-26T02:32:38.318Z,82.50
2019-04-26T02:37:49.153Z,83.80
2019-04-26T02:42:56.454Z,82.70
2019-04-26T02:48:30.403Z,82.70
2019-04-26T02:54:14.554Z,81.50
2019-04-26T02:59:43.010Z,82.60
2019-04-26T03:04:54.573Z,80.00
2019-04-26T03:10:02.677Z,80.30
2019-04-26T03:15:30.367Z,82.10
2019-04-26T03:20:42.414Z,82.30
2019-04-26T03:26:17.707Z,81.90
2019-04-26T03:31:58.838Z,83.50
2019-04-26T03:38:08.462Z,84.40
2019-04-26T03:43:53.535Z,87.10
2019-04-26T03:49:42.044Z,85.90
2019-04-26T03:54:55.058Z,86.70
2019-04-26T04:00:50.941Z,86.60
2019-04-26T04:06:03.722Z,87.20
2019-04-26T04:11:20.505Z,89.00
2019-04-26T04:17:24.269Z,89.60
2019-04-26T04:22:37.886Z,88.90
2019-04-26T04:28:14.228Z,95.00
2019-04-26T04:33:47.339Z,91.60
2019-04-26T04:39:16.801Z,89.00
2019-04-26T04:45:06.827Z,94.00
2019-04-26T04:50:31.690Z,90.70
2019-04-26T04:56:01.257Z,93.10
2019-04-26T05:02:27.638Z,96.40
2019-04-26T05:08:06.727Z,94.90
2019-04-26T05:13:37.623Z,93.30
2019-04-26T05:19:29.938Z,92.10
2019-04-26T05:25:10.250Z,92.70
2019-04-26T05:31:07.048Z,93.30
2019-04-26T05:36:50.401Z,92.10
2019-04-26T05:42:32.671Z,88.30
2019-04-26T05:48:08.385Z,88.30
2019-04-26T05:54:43.338Z,85.30
2019-04-26T06:00:28.275Z,83.40
2019-04-26T06:06:10.036Z,77.80
2019-04-26T06:11:30.120Z,77.20
2019-04-26T06:17:15.755Z,77.30
2019-04-26T06:22:59.183Z,76.10
2019-04-26T06:28:24.045Z,77.60
2019-04-26T06:33:59.464Z,76.20
2019-04-26T06:39:35.204Z,76.60
2019-04-26T06:46:14.531Z,76.70
2019-04-26T06:51:30.465Z,76.00
2019-04-26T06:57:23.734Z,79.70
2019-04-26T07:03:41.296Z,76.80
2019-04-26T07:08:57.771Z,77.60
2019-04-26T07:15:28.751Z,79.50
2019-04-26T07:20:48.760Z,77.50
2019-04-26T07:26:53.865Z,78.40
2019-04-26T07:32:18.039Z,76.60
2019-04-26T07:38:16.341Z,77.80
2019-04-26T07:44:01.013Z,78.10
2019-04-26T07:50:26.561Z,74.00
2019-04-26T07:55:42.212Z,71.80
2019-04-26T08:01:04.045Z,71.30
2019-04-26T08:06:22.469Z,70.50
2019-04-26T08:11:42.512Z,69.70
2019-04-26T08:17:32.602Z,65.40
2019-04-26T08:22:43.650Z,66.40
2019-04-26T08:27:53.759Z,68.10
2019-04-26T08:33:07.531Z,69.10
2019-04-26T08:38:20.827Z,68.30
2019-04-26T08:43:48.600Z,67.50
2019-04-26T08:49:06.466Z,66.90
2019-04-26T08:54:26.359Z,70.90
2019-04-26T08:59:38.783Z,64.40
2019-04-26T09:05:05.945Z,65.90
2019-04-26T09:10:16.979Z,67.80
2019-04-26T09:16:02.063Z,67.40
2019-04-26T09:21:08.831Z,66.80
2019-04-26T09:26:20.157Z,64.70
2019-04-26T09:31:40.163Z,67.50
2019-04-26T09:36:46.779Z,63.80
2019-04-26T09:41:55.530Z,66.30
2019-04-26T09:47:20.007Z,69.40
2019-04-26T09:52:30.479Z,66.50
2019-04-26T09:57:37.137Z,66.70
2019-04-26T10:02:44.171Z,65.70
2019-04-26T10:07:52.109Z,67.30
2019-04-26T10:13:20.633Z,63.70
2019-04-26T10:18:27.387Z,61.80
2019-04-26T10:23:34.158Z,62.60
2019-04-26T10:28:40.938Z,64.60
2019-04-26T10:33:47.593Z,64.30
2019-04-26T10:38:54.435Z,67.10
2019-04-26T10:44:01.111Z,63.30
2019-04-26T10:49:41.061Z,63.60
2019-04-26T10:54:51.665Z,65.80
2019-04-26T11:00:00.546Z,63.60
2019-04-26T11:05:11.301Z,61.10
2019-04-26T11:10:16.930Z,63.60
2019-04-26T11:15:23.662Z,64.20
2019-04-26T11:20:30.255Z,63.70
2019-04-26T11:25:36.990Z,63.90
2019-04-26T11:30:43.653Z,65.40
2019-04-26T11:35:50.318Z,61.00
2019-04-26T11:41:05.930Z,63.60
2019-04-26T11:46:05.537Z,62.60
2019-04-26T11:51:12.351Z,58.80
2019-04-26T11:56:19.030Z,64.40
2019-04-26T12:01:28.071Z,62.80
2019-04-26T12:06:43.799Z,63.10
2019-04-26T12:12:03.694Z,63.90
2019-04-26T12:16:59.621Z,59.00
2019-04-26T12:22:08.228Z,60.00
2019-04-26T12:27:15.771Z,61.60
2019-04-26T12:32:22.435Z,61.00
2019-04-26T12:37:30.213Z,58.20
2019-04-26T12:42:36.860Z,57.50
2019-04-26T12:47:49.579Z,61.00
2019-04-26T12:52:57.399Z,59.70
2019-04-26T12:58:04.106Z,60.60
2019-04-26T13:03:20.109Z,60.30
2019-04-26T13:08:19.025Z,60.30
2019-04-26T13:13:45.031Z,63.10
2019-04-26T13:18:51.698Z,59.80
2019-04-26T13:24:00.179Z,60.00
2019-04-26T13:29:06.554Z,62.10
2019-04-26T13:34:13.231Z,62.50
2019-04-26T13:39:22.552Z,59.00
2019-04-26T13:44:47.375Z,59.50
2019-04-26T13:50:22.446Z,59.70
2019-04-26T13:55:33.594Z,64.90
2019-04-26T14:00:39.667Z,61.50
2019-04-26T14:05:48.604Z,62.20
2019-04-26T14:10:56.884Z,61.80
2019-04-26T14:16:04.180Z,64.90
2019-04-26T14:21:11.057Z,65.50
2019-04-26T14:26:22.292Z,63.50
2019-04-26T14:31:28.865Z,63.30
2019-04-26T14:36:35.523Z,61.50
2019-04-26T14:41:42.169Z,61.90
2019-04-26T14:46:53.006Z,64.20
2019-04-26T14:51:57.397Z,65.40
2019-04-26T14:57:11.371Z,65.50
2019-04-26T15:02:32.835Z,67.10
2019-04-26T15:07:49.552Z,66.50
2019-04-26T15:12:52.656Z,68.80
2019-04-26T15:17:59.379Z,69.10
2019-04-26T15:23:04.722Z,69.60
2019-04-26T15:28:14.533Z,68.40
2019-04-26T15:33:22.024Z,69.10
2019-04-26T15:38:34.862Z,71.40
2019-04-26T15:43:59.079Z,70.20
2019-04-26T15:49:26.100Z,73.90
2019-04-26T15:54:33.181Z,74.50
2019-04-26T15:59:40.225Z,77.60
2019-04-26T16:04:51.368Z,78.40
2019-04-26T16:09:58.162Z,78.20
2019-04-26T16:15:06.540Z,77.00
2019-04-26T16:20:14.148Z,80.30
2019-04-26T16:25:22.650Z,81.30
2019-04-26T16:30:49.936Z,80.00
2019-04-26T16:35:57.403Z,82.10
2019-04-26T16:41:07.299Z,83.20
2019-04-26T16:46:20.186Z,84.30
2019-04-26T16:51:23.291Z,85.00
2019-04-26T16:56:29.943Z,88.40
2019-04-26T17:01:38.101Z,89.40
2019-04-26T17:06:46.372Z,87.80
2019-04-26T17:11:53.272Z,87.40
2019-04-26T17:16:59.893Z,89.70
2019-04-26T17:22:16.085Z,89.30
2019-04-26T17:27:23.993Z,89.90
2019-04-26T17:32:30.928Z,89.00
2019-04-26T17:37:37.778Z,87.60
2019-04-26T17:42:44.436Z,88.20
2019-04-26T17:47:52.980Z,90.40
2019-04-26T17:53:00.615Z,93.00
2019-04-26T17:58:14.608Z,96.50
2019-04-26T18:03:18.705Z,99.90
2019-04-26T18:08:40.671Z,99.90
2019-04-26T18:13:33.746Z,99.90
2019-04-26T18:18:59.246Z,99.90
2019-04-26T18:24:06.045Z,99.90
2019-04-26T18:29:13.835Z,99.90
2019-04-26T18:34:20.293Z,99.90
2019-04-26T18:39:29.578Z,99.90
2019-04-26T18:44:38.596Z,99.90
2019-04-26T18:49:43.723Z,99.90
2019-04-26T18:54:55.397Z,99.90
2019-04-26T19:00:01.980Z,99.90
2019-04-26T19:05:09.053Z,99.90
2019-04-26T19:10:16.446Z,99.90
2019-04-26T19:15:40.590Z,99.90
2019-04-26T19:21:03.058Z,99.90
2019-04-26T19:26:13.668Z,99.90
2019-04-26T19:31:23.828Z,99.90
2019-04-26T19:36:29.324Z,99.90
2019-04-26T19:41:35.923Z,99.90
2019-04-26T19:47:04.890Z,99.90
2019-04-26T19:52:39.629Z,99.90
2019-04-26T19:57:55.733Z,99.90
2019-04-26T20:03:02.511Z,99.90
2019-04-26T20:08:09.384Z,99.90
2019-04-26T20:13:16.746Z,99.90
2019-04-26T20:18:23.353Z,99.90
2019-04-26T20:23:33.622Z,99.90
2019-04-26T20:28:38.453Z,99.90
2019-04-26T20:33:47.664Z,99.90
2019-04-26T20:38:53.492Z,99.90
2019-04-26T20:44:06.994Z,99.90
2019-04-26T20:49:09.308Z,99.90
2019-04-26T20:54:17.341Z,99.90
2019-04-26T20:59:24.045Z,99.90
2019-04-26T21:04:37.974Z,99.90
2019-04-26T21:09:40.834Z,99.90
2019-04-26T21:14:47.464Z,99.90
2019-04-26T21:19:57.276Z,99.90
2019-04-26T21:25:07.376Z,99.90
2019-04-26T21:30:25.185Z,99.90
2019-04-26T21:35:44.535Z,99.90
2019-04-26T21:41:01.435Z,99.90
2019-04-26T21:46:08.409Z,99.90
2019-04-26T21:51:13.090Z,99.90
2019-04-26T21:56:20.124Z,99.90
2019-04-26T22:01:27.054Z,99.90
2019-04-26T22:06:33.671Z,99.90
2019-04-26T22:11:40.479Z,99.90
2019-04-26T22:17:02.021Z,99.90
2019-04-26T22:22:15.258Z,99.90
2019-04-26T22:27:25.225Z,99.90
2019-04-26T22:32:30.211Z,99.90
2019-04-26T22:37:36.784Z,99.90
2019-04-26T22:42:45.110Z,99.90
2019-04-26T22:47:59.482Z,99.90
2019-04-26T22:53:06.116Z,99.90
2019-04-26T22:58:13.644Z,99.90
2019-04-26T23:03:20.684Z,99.90
2019-04-26T23:08:30.750Z,99.90
2019-04-26T23:13:55.696Z,99.90
2019-04-26T23:19:20.401Z,99.90
2019-04-26T23:24:27.236Z,99.90
2019-04-26T23:29:33.853Z,99.90
2019-04-26T23:34:40.385Z,99.90
2019-04-26T23:39:49.892Z,99.90
2019-04-26T23:44:55.232Z,99.90
2019-04-26T23:50:03.541Z,99.90
2019-04-26T23:55:10.149Z,99.90
